sensor_id;sensor_type;location;lat;lon;timestamp;P1;durP1;ratioP1;P2;durP2;ratioP2
76606;SDS011;65498;50.916;4.698;2023-04-29T00:00:09;6.60;;;3.37;;
76606;SDS011;65498;50.916;4.698;2023-04-29T00:02:38;8.68;;;3.30;;
76606;SDS011;65498;50.916;4.698;2023-04-29T00:05:06;7.72;;;3.37;;
76606;SDS011;65498;50.916;4.698;2023-04-29T00:07:34;8.40;;;4.25;;
76606;SDS011;65498;50.916;4.698;2023-04-29T00:10:01;8.53;;;3.72;;
76606;SDS011;65498;50.916;4.698;2023-04-29T00:12:29;7.05;;;3.75;;
76606;SDS011;65498;50.916;4.698;2023-04-29T00:14:58;10.85;;;4.87;;
76606;SDS011;65498;50.916;4.698;2023-04-29T00:17:27;9.40;;;4.37;;
76606;SDS011;65498;50.916;4.698;2023-04-29T00:19:55;9.43;;;4.30;;
76606;SDS011;65498;50.916;4.698;2023-04-29T00:22:22;7.85;;;3.95;;
76606;SDS011;65498;50.916;4.698;2023-04-29T00:24:50;7.90;;;4.12;;
76606;SDS011;65498;50.916;4.698;2023-04-29T00:27:18;8.13;;;3.75;;
76606;SDS011;65498;50.916;4.698;2023-04-29T00:29:45;7.90;;;3.87;;
76606;SDS011;65498;50.916;4.698;2023-04-29T00:32:13;8.08;;;3.80;;
76606;SDS011;65498;50.916;4.698;2023-04-29T00:34:40;7.95;;;3.98;;
76606;SDS011;65498;50.916;4.698;2023-04-29T00:37:08;7.72;;;3.67;;
76606;SDS011;65498;50.916;4.698;2023-04-29T00:39:35;7.90;;;3.80;;
76606;SDS011;65498;50.916;4.698;2023-04-29T00:42:03;7.92;;;4.25;;
76606;SDS011;65498;50.916;4.698;2023-04-29T00:44:30;7.83;;;3.60;;
76606;SDS011;65498;50.916;4.698;2023-04-29T00:46:58;7.90;;;3.95;;
76606;SDS011;65498;50.916;4.698;2023-04-29T00:49:25;7.58;;;3.60;;
76606;SDS011;65498;50.916;4.698;2023-04-29T00:51:53;8.60;;;3.75;;
76606;SDS011;65498;50.916;4.698;2023-04-29T00:54:23;7.17;;;3.50;;
76606;SDS011;65498;50.916;4.698;2023-04-29T00:56:51;10.25;;;3.60;;
76606;SDS011;65498;50.916;4.698;2023-04-29T00:59:20;7.72;;;3.87;;
76606;SDS011;65498;50.916;4.698;2023-04-29T01:01:48;7.53;;;3.67;;
76606;SDS011;65498;50.916;4.698;2023-04-29T01:04:18;6.83;;;3.30;;
76606;SDS011;65498;50.916;4.698;2023-04-29T01:06:56;7.17;;;3.40;;
76606;SDS011;65498;50.916;4.698;2023-04-29T01:14:53;12.30;;;4.33;;
76606;SDS011;65498;50.916;4.698;2023-04-29T01:17:27;8.20;;;3.90;;
76606;SDS011;65498;50.916;4.698;2023-04-29T01:19:57;7.78;;;3.98;;
76606;SDS011;65498;50.916;4.698;2023-04-29T01:22:26;8.13;;;3.70;;
76606;SDS011;65498;50.916;4.698;2023-04-29T01:24:54;10.60;;;4.90;;
76606;SDS011;65498;50.916;4.698;2023-04-29T01:27:32;11.55;;;4.40;;
76606;SDS011;65498;50.916;4.698;2023-04-29T01:30:05;9.83;;;4.47;;
76606;SDS011;65498;50.916;4.698;2023-04-29T01:38:29;14.18;;;4.70;;
76606;SDS011;65498;50.916;4.698;2023-04-29T01:41:05;12.95;;;4.58;;
76606;SDS011;65498;50.916;4.698;2023-04-29T01:43:37;10.82;;;4.53;;
76606;SDS011;65498;50.916;4.698;2023-04-29T01:46:08;12.35;;;4.37;;
76606;SDS011;65498;50.916;4.698;2023-04-29T01:48:36;11.55;;;4.17;;
76606;SDS011;65498;50.916;4.698;2023-04-29T01:51:05;11.63;;;4.80;;
76606;SDS011;65498;50.916;4.698;2023-04-29T01:53:36;12.82;;;5.75;;
76606;SDS011;65498;50.916;4.698;2023-04-29T01:56:06;11.60;;;4.83;;
76606;SDS011;65498;50.916;4.698;2023-04-29T01:58:34;13.10;;;4.70;;
76606;SDS011;65498;50.916;4.698;2023-04-29T02:01:01;12.05;;;4.28;;
76606;SDS011;65498;50.916;4.698;2023-04-29T02:03:29;12.85;;;4.97;;
76606;SDS011;65498;50.916;4.698;2023-04-29T02:05:56;8.83;;;4.35;;
76606;SDS011;65498;50.916;4.698;2023-04-29T02:08:24;9.53;;;4.22;;
76606;SDS011;65498;50.916;4.698;2023-04-29T02:10:52;10.48;;;4.17;;
76606;SDS011;65498;50.916;4.698;2023-04-29T02:13:21;10.38;;;4.37;;
76606;SDS011;65498;50.916;4.698;2023-04-29T02:15:49;7.90;;;4.15;;
76606;SDS011;65498;50.916;4.698;2023-04-29T02:18:17;10.05;;;4.55;;
76606;SDS011;65498;50.916;4.698;2023-04-29T02:20:44;11.40;;;5.55;;
76606;SDS011;65498;50.916;4.698;2023-04-29T02:23:11;9.93;;;4.30;;
76606;SDS011;65498;50.916;4.698;2023-04-29T02:25:39;13.30;;;5.03;;
76606;SDS011;65498;50.916;4.698;2023-04-29T02:28:06;11.85;;;4.22;;
76606;SDS011;65498;50.916;4.698;2023-04-29T02:30:34;9.00;;;4.45;;
76606;SDS011;65498;50.916;4.698;2023-04-29T02:33:02;9.50;;;4.30;;
76606;SDS011;65498;50.916;4.698;2023-04-29T02:35:29;12.40;;;5.35;;
76606;SDS011;65498;50.916;4.698;2023-04-29T02:37:57;11.15;;;4.37;;
76606;SDS011;65498;50.916;4.698;2023-04-29T02:40:24;9.83;;;4.50;;
76606;SDS011;65498;50.916;4.698;2023-04-29T02:42:52;9.95;;;4.37;;
76606;SDS011;65498;50.916;4.698;2023-04-29T02:45:19;9.93;;;4.25;;
76606;SDS011;65498;50.916;4.698;2023-04-29T02:47:47;11.50;;;5.12;;
76606;SDS011;65498;50.916;4.698;2023-04-29T02:50:14;10.63;;;4.85;;
76606;SDS011;65498;50.916;4.698;2023-04-29T02:52:42;10.00;;;4.53;;
76606;SDS011;65498;50.916;4.698;2023-04-29T02:55:11;11.33;;;5.78;;
76606;SDS011;65498;50.916;4.698;2023-04-29T02:57:38;9.93;;;4.58;;
76606;SDS011;65498;50.916;4.698;2023-04-29T03:00:06;8.95;;;4.92;;
76606;SDS011;65498;50.916;4.698;2023-04-29T03:02:34;9.80;;;4.60;;
76606;SDS011;65498;50.916;4.698;2023-04-29T03:05:02;10.48;;;5.12;;
76606;SDS011;65498;50.916;4.698;2023-04-29T03:07:30;9.55;;;4.58;;
76606;SDS011;65498;50.916;4.698;2023-04-29T03:09:58;8.25;;;4.37;;
76606;SDS011;65498;50.916;4.698;2023-04-29T03:12:26;8.68;;;4.35;;
76606;SDS011;65498;50.916;4.698;2023-04-29T03:14:53;9.05;;;4.65;;
76606;SDS011;65498;50.916;4.698;2023-04-29T03:17:21;10.70;;;4.97;;
76606;SDS011;65498;50.916;4.698;2023-04-29T03:19:49;9.65;;;4.80;;
76606;SDS011;65498;50.916;4.698;2023-04-29T03:22:18;11.08;;;4.72;;
76606;SDS011;65498;50.916;4.698;2023-04-29T03:24:45;9.63;;;4.70;;
76606;SDS011;65498;50.916;4.698;2023-04-29T03:27:13;9.20;;;4.40;;
76606;SDS011;65498;50.916;4.698;2023-04-29T03:29:40;10.40;;;4.83;;
76606;SDS011;65498;50.916;4.698;2023-04-29T03:32:08;8.95;;;4.97;;
76606;SDS011;65498;50.916;4.698;2023-04-29T03:34:36;11.30;;;5.10;;
76606;SDS011;65498;50.916;4.698;2023-04-29T03:37:03;11.22;;;4.60;;
76606;SDS011;65498;50.916;4.698;2023-04-29T03:39:31;10.15;;;4.90;;
76606;SDS011;65498;50.916;4.698;2023-04-29T03:41:58;11.10;;;4.70;;
76606;SDS011;65498;50.916;4.698;2023-04-29T03:44:27;10.40;;;5.12;;
76606;SDS011;65498;50.916;4.698;2023-04-29T03:46:55;10.38;;;5.20;;
76606;SDS011;65498;50.916;4.698;2023-04-29T03:49:22;9.80;;;5.30;;
76606;SDS011;65498;50.916;4.698;2023-04-29T03:51:50;9.08;;;4.58;;
76606;SDS011;65498;50.916;4.698;2023-04-29T03:54:18;8.68;;;4.65;;
76606;SDS011;65498;50.916;4.698;2023-04-29T03:56:46;8.58;;;4.60;;
76606;SDS011;65498;50.916;4.698;2023-04-29T03:59:13;9.93;;;4.50;;
76606;SDS011;65498;50.916;4.698;2023-04-29T04:01:41;8.93;;;4.75;;
76606;SDS011;65498;50.916;4.698;2023-04-29T04:04:08;9.55;;;4.67;;
76606;SDS011;65498;50.916;4.698;2023-04-29T04:06:36;10.43;;;5.05;;
76606;SDS011;65498;50.916;4.698;2023-04-29T04:09:04;8.28;;;4.58;;
76606;SDS011;65498;50.916;4.698;2023-04-29T04:11:31;8.60;;;4.00;;
76606;SDS011;65498;50.916;4.698;2023-04-29T04:13:59;8.85;;;4.58;;
76606;SDS011;65498;50.916;4.698;2023-04-29T04:16:26;8.45;;;4.53;;
76606;SDS011;65498;50.916;4.698;2023-04-29T04:18:54;8.68;;;4.20;;
76606;SDS011;65498;50.916;4.698;2023-04-29T04:21:21;8.95;;;4.67;;
76606;SDS011;65498;50.916;4.698;2023-04-29T04:23:49;9.55;;;4.62;;
76606;SDS011;65498;50.916;4.698;2023-04-29T04:26:17;7.92;;;4.62;;
76606;SDS011;65498;50.916;4.698;2023-04-29T04:28:45;9.28;;;4.10;;
76606;SDS011;65498;50.916;4.698;2023-04-29T04:31:13;8.28;;;4.20;;
76606;SDS011;65498;50.916;4.698;2023-04-29T04:33:40;8.63;;;4.30;;
76606;SDS011;65498;50.916;4.698;2023-04-29T04:36:07;10.15;;;4.35;;
76606;SDS011;65498;50.916;4.698;2023-04-29T04:38:35;8.13;;;4.67;;
76606;SDS011;65498;50.916;4.698;2023-04-29T04:41:04;9.00;;;4.62;;
76606;SDS011;65498;50.916;4.698;2023-04-29T04:43:33;8.68;;;5.03;;
76606;SDS011;65498;50.916;4.698;2023-04-29T04:46:08;8.63;;;5.00;;
76606;SDS011;65498;50.916;4.698;2023-04-29T04:48:39;7.72;;;4.12;;
76606;SDS011;65498;50.916;4.698;2023-04-29T04:53:54;9.30;;;4.67;;
76606;SDS011;65498;50.916;4.698;2023-04-29T04:56:21;11.50;;;4.50;;
76606;SDS011;65498;50.916;4.698;2023-04-29T04:58:49;7.97;;;4.28;;
76606;SDS011;65498;50.916;4.698;2023-04-29T05:01:17;8.68;;;5.35;;
76606;SDS011;65498;50.916;4.698;2023-04-29T05:03:44;8.75;;;4.45;;
76606;SDS011;65498;50.916;4.698;2023-04-29T05:06:12;9.93;;;4.80;;
76606;SDS011;65498;50.916;4.698;2023-04-29T05:08:40;9.05;;;4.80;;
76606;SDS011;65498;50.916;4.698;2023-04-29T05:11:14;8.43;;;4.53;;
76606;SDS011;65498;50.916;4.698;2023-04-29T05:13:43;8.35;;;4.45;;
76606;SDS011;65498;50.916;4.698;2023-04-29T05:16:10;9.18;;;4.40;;
76606;SDS011;65498;50.916;4.698;2023-04-29T05:18:38;10.03;;;4.83;;
76606;SDS011;65498;50.916;4.698;2023-04-29T05:21:07;9.25;;;5.03;;
76606;SDS011;65498;50.916;4.698;2023-04-29T05:23:35;8.23;;;4.37;;
76606;SDS011;65498;50.916;4.698;2023-04-29T05:26:03;8.30;;;4.67;;
76606;SDS011;65498;50.916;4.698;2023-04-29T05:28:30;8.03;;;4.33;;
76606;SDS011;65498;50.916;4.698;2023-04-29T05:30:58;9.50;;;4.80;;
76606;SDS011;65498;50.916;4.698;2023-04-29T05:33:25;8.90;;;4.62;;
76606;SDS011;65498;50.916;4.698;2023-04-29T05:35:53;9.93;;;4.53;;
76606;SDS011;65498;50.916;4.698;2023-04-29T05:38:20;9.85;;;4.22;;
76606;SDS011;65498;50.916;4.698;2023-04-29T05:40:49;8.55;;;4.22;;
76606;SDS011;65498;50.916;4.698;2023-04-29T05:43:17;9.70;;;4.70;;
76606;SDS011;65498;50.916;4.698;2023-04-29T05:45:45;9.13;;;4.42;;
76606;SDS011;65498;50.916;4.698;2023-04-29T05:48:13;9.48;;;5.30;;
76606;SDS011;65498;50.916;4.698;2023-04-29T05:50:41;8.10;;;4.50;;
76606;SDS011;65498;50.916;4.698;2023-04-29T05:53:08;9.43;;;4.72;;
76606;SDS011;65498;50.916;4.698;2023-04-29T05:55:38;9.63;;;4.72;;
76606;SDS011;65498;50.916;4.698;2023-04-29T05:58:07;9.25;;;5.30;;
76606;SDS011;65498;50.916;4.698;2023-04-29T06:00:34;8.95;;;4.65;;
76606;SDS011;65498;50.916;4.698;2023-04-29T06:03:02;8.80;;;5.12;;
76606;SDS011;65498;50.916;4.698;2023-04-29T06:05:30;10.50;;;4.60;;
76606;SDS011;65498;50.916;4.698;2023-04-29T06:07:57;9.05;;;5.35;;
76606;SDS011;65498;50.916;4.698;2023-04-29T06:10:25;8.93;;;4.75;;
76606;SDS011;65498;50.916;4.698;2023-04-29T06:12:52;8.38;;;4.72;;
76606;SDS011;65498;50.916;4.698;2023-04-29T06:15:20;8.80;;;4.83;;
76606;SDS011;65498;50.916;4.698;2023-04-29T06:17:48;10.08;;;4.75;;
76606;SDS011;65498;50.916;4.698;2023-04-29T06:20:15;8.40;;;4.62;;
76606;SDS011;65498;50.916;4.698;2023-04-29T06:22:43;7.47;;;4.83;;
76606;SDS011;65498;50.916;4.698;2023-04-29T06:25:11;8.53;;;5.03;;
76606;SDS011;65498;50.916;4.698;2023-04-29T06:27:39;8.18;;;4.50;;
76606;SDS011;65498;50.916;4.698;2023-04-29T06:30:07;8.60;;;4.78;;
76606;SDS011;65498;50.916;4.698;2023-04-29T06:32:35;8.30;;;4.50;;
76606;SDS011;65498;50.916;4.698;2023-04-29T06:35:04;9.30;;;4.80;;
76606;SDS011;65498;50.916;4.698;2023-04-29T06:37:32;8.63;;;4.90;;
76606;SDS011;65498;50.916;4.698;2023-04-29T06:39:59;8.15;;;4.55;;
76606;SDS011;65498;50.916;4.698;2023-04-29T06:42:27;9.50;;;4.53;;
76606;SDS011;65498;50.916;4.698;2023-04-29T06:44:54;9.53;;;4.87;;
76606;SDS011;65498;50.916;4.698;2023-04-29T06:47:22;9.43;;;5.08;;
76606;SDS011;65498;50.916;4.698;2023-04-29T06:49:49;8.63;;;4.55;;
76606;SDS011;65498;50.916;4.698;2023-04-29T06:52:17;9.85;;;4.78;;
76606;SDS011;65498;50.916;4.698;2023-04-29T06:54:45;8.45;;;4.75;;
76606;SDS011;65498;50.916;4.698;2023-04-29T06:57:12;8.60;;;4.95;;
76606;SDS011;65498;50.916;4.698;2023-04-29T06:59:40;11.70;;;5.47;;
76606;SDS011;65498;50.916;4.698;2023-04-29T07:02:07;8.40;;;4.47;;
76606;SDS011;65498;50.916;4.698;2023-04-29T07:04:35;8.20;;;4.28;;
76606;SDS011;65498;50.916;4.698;2023-04-29T07:07:02;9.65;;;4.92;;
76606;SDS011;65498;50.916;4.698;2023-04-29T07:09:30;9.63;;;5.47;;
76606;SDS011;65498;50.916;4.698;2023-04-29T07:11:57;8.93;;;4.87;;
76606;SDS011;65498;50.916;4.698;2023-04-29T07:14:25;8.45;;;4.83;;
76606;SDS011;65498;50.916;4.698;2023-04-29T07:16:53;8.55;;;4.80;;
76606;SDS011;65498;50.916;4.698;2023-04-29T07:19:21;8.05;;;4.65;;
76606;SDS011;65498;50.916;4.698;2023-04-29T07:21:48;11.30;;;6.15;;
76606;SDS011;65498;50.916;4.698;2023-04-29T07:24:16;9.13;;;5.15;;
76606;SDS011;65498;50.916;4.698;2023-04-29T07:26:43;8.58;;;5.17;;
76606;SDS011;65498;50.916;4.698;2023-04-29T07:29:11;9.25;;;4.65;;
76606;SDS011;65498;50.916;4.698;2023-04-29T07:31:39;9.30;;;4.87;;
76606;SDS011;65498;50.916;4.698;2023-04-29T07:34:07;9.40;;;5.50;;
76606;SDS011;65498;50.916;4.698;2023-04-29T07:36:34;10.80;;;4.80;;
76606;SDS011;65498;50.916;4.698;2023-04-29T07:39:02;8.75;;;4.95;;
76606;SDS011;65498;50.916;4.698;2023-04-29T07:41:29;8.55;;;4.95;;
76606;SDS011;65498;50.916;4.698;2023-04-29T07:43:57;8.53;;;4.60;;
76606;SDS011;65498;50.916;4.698;2023-04-29T07:46:24;8.25;;;5.10;;
76606;SDS011;65498;50.916;4.698;2023-04-29T07:48:53;8.88;;;5.08;;
76606;SDS011;65498;50.916;4.698;2023-04-29T07:51:20;10.05;;;4.75;;
76606;SDS011;65498;50.916;4.698;2023-04-29T07:53:48;9.75;;;4.85;;
76606;SDS011;65498;50.916;4.698;2023-04-29T07:56:16;10.15;;;5.47;;
76606;SDS011;65498;50.916;4.698;2023-04-29T07:58:44;11.22;;;5.37;;
76606;SDS011;65498;50.916;4.698;2023-04-29T08:01:12;10.65;;;5.25;;
76606;SDS011;65498;50.916;4.698;2023-04-29T08:03:40;8.15;;;4.78;;
76606;SDS011;65498;50.916;4.698;2023-04-29T08:06:07;13.55;;;5.95;;
76606;SDS011;65498;50.916;4.698;2023-04-29T08:08:37;10.48;;;5.28;;
76606;SDS011;65498;50.916;4.698;2023-04-29T08:11:04;8.53;;;4.67;;
76606;SDS011;65498;50.916;4.698;2023-04-29T08:13:32;8.30;;;5.00;;
76606;SDS011;65498;50.916;4.698;2023-04-29T08:15:59;11.33;;;5.35;;
76606;SDS011;65498;50.916;4.698;2023-04-29T08:18:27;11.25;;;5.03;;
76606;SDS011;65498;50.916;4.698;2023-04-29T08:20:54;12.25;;;5.10;;
76606;SDS011;65498;50.916;4.698;2023-04-29T08:23:22;8.50;;;4.65;;
76606;SDS011;65498;50.916;4.698;2023-04-29T08:25:49;9.08;;;4.72;;
76606;SDS011;65498;50.916;4.698;2023-04-29T08:28:17;8.30;;;4.80;;
76606;SDS011;65498;50.916;4.698;2023-04-29T08:30:45;9.25;;;5.05;;
76606;SDS011;65498;50.916;4.698;2023-04-29T08:33:13;8.63;;;4.70;;
76606;SDS011;65498;50.916;4.698;2023-04-29T08:35:41;8.83;;;5.22;;
76606;SDS011;65498;50.916;4.698;2023-04-29T08:38:08;10.40;;;4.90;;
76606;SDS011;65498;50.916;4.698;2023-04-29T08:40:45;9.20;;;4.78;;
76606;SDS011;65498;50.916;4.698;2023-04-29T08:43:10;9.90;;;4.78;;
76606;SDS011;65498;50.916;4.698;2023-04-29T08:45:42;10.10;;;4.72;;
76606;SDS011;65498;50.916;4.698;2023-04-29T08:48:10;9.20;;;4.42;;
76606;SDS011;65498;50.916;4.698;2023-04-29T08:50:39;8.68;;;5.15;;
76606;SDS011;65498;50.916;4.698;2023-04-29T08:53:13;8.40;;;4.97;;
76606;SDS011;65498;50.916;4.698;2023-04-29T08:55:42;9.05;;;4.97;;
76606;SDS011;65498;50.916;4.698;2023-04-29T08:58:12;10.25;;;5.25;;
76606;SDS011;65498;50.916;4.698;2023-04-29T09:00:43;9.73;;;4.67;;
76606;SDS011;65498;50.916;4.698;2023-04-29T09:05:42;8.03;;;4.72;;
76606;SDS011;65498;50.916;4.698;2023-04-29T09:08:13;9.00;;;5.05;;
76606;SDS011;65498;50.916;4.698;2023-04-29T09:10:41;11.28;;;4.85;;
76606;SDS011;65498;50.916;4.698;2023-04-29T09:13:21;8.95;;;4.80;;
76606;SDS011;65498;50.916;4.698;2023-04-29T09:15:58;9.05;;;4.42;;
76606;SDS011;65498;50.916;4.698;2023-04-29T09:23:44;7.80;;;4.20;;
76606;SDS011;65498;50.916;4.698;2023-04-29T09:26:16;8.53;;;4.60;;
76606;SDS011;65498;50.916;4.698;2023-04-29T09:28:44;8.70;;;5.12;;
76606;SDS011;65498;50.916;4.698;2023-04-29T09:31:12;8.93;;;4.95;;
76606;SDS011;65498;50.916;4.698;2023-04-29T09:36:35;8.18;;;4.53;;
76606;SDS011;65498;50.916;4.698;2023-04-29T09:39:14;8.65;;;5.05;;
76606;SDS011;65498;50.916;4.698;2023-04-29T09:44:32;8.20;;;4.90;;
76606;SDS011;65498;50.916;4.698;2023-04-29T09:47:05;6.90;;;4.00;;
76606;SDS011;65498;50.916;4.698;2023-04-29T09:49:37;7.60;;;4.22;;
76606;SDS011;65498;50.916;4.698;2023-04-29T09:52:10;10.00;;;4.78;;
76606;SDS011;65498;50.916;4.698;2023-04-29T09:54:40;8.18;;;4.78;;
76606;SDS011;65498;50.916;4.698;2023-04-29T09:57:09;7.67;;;4.97;;
76606;SDS011;65498;50.916;4.698;2023-04-29T09:59:40;8.65;;;4.72;;
76606;SDS011;65498;50.916;4.698;2023-04-29T10:04:44;9.68;;;4.62;;
76606;SDS011;65498;50.916;4.698;2023-04-29T10:07:14;8.73;;;5.28;;
76606;SDS011;65498;50.916;4.698;2023-04-29T10:09:48;9.55;;;4.87;;
76606;SDS011;65498;50.916;4.698;2023-04-29T10:12:16;8.30;;;4.70;;
76606;SDS011;65498;50.916;4.698;2023-04-29T10:14:54;9.65;;;5.42;;
76606;SDS011;65498;50.916;4.698;2023-04-29T10:17:42;9.23;;;4.62;;
76606;SDS011;65498;50.916;4.698;2023-04-29T10:20:04;8.78;;;4.67;;
76606;SDS011;65498;50.916;4.698;2023-04-29T10:25:14;8.40;;;4.85;;
76606;SDS011;65498;50.916;4.698;2023-04-29T10:27:43;11.75;;;5.15;;
76606;SDS011;65498;50.916;4.698;2023-04-29T10:30:15;8.58;;;4.97;;
76606;SDS011;65498;50.916;4.698;2023-04-29T10:32:44;9.45;;;4.10;;
76606;SDS011;65498;50.916;4.698;2023-04-29T10:35:13;10.03;;;4.58;;
76606;SDS011;65498;50.916;4.698;2023-04-29T10:37:44;8.63;;;4.58;;
76606;SDS011;65498;50.916;4.698;2023-04-29T10:40:17;8.05;;;4.35;;
76606;SDS011;65498;50.916;4.698;2023-04-29T10:42:50;7.17;;;3.75;;
76606;SDS011;65498;50.916;4.698;2023-04-29T10:45:22;7.97;;;4.87;;
76606;SDS011;65498;50.916;4.698;2023-04-29T10:50:34;7.55;;;4.00;;
76606;SDS011;65498;50.916;4.698;2023-04-29T10:53:16;8.05;;;4.25;;
76606;SDS011;65498;50.916;4.698;2023-04-29T11:01:11;8.23;;;4.10;;
76606;SDS011;65498;50.916;4.698;2023-04-29T11:09:14;9.13;;;3.92;;
76606;SDS011;65498;50.916;4.698;2023-04-29T11:11:44;8.88;;;3.92;;
76606;SDS011;65498;50.916;4.698;2023-04-29T11:14:14;7.83;;;4.28;;
76606;SDS011;65498;50.916;4.698;2023-04-29T11:19:17;8.33;;;3.70;;
76606;SDS011;65498;50.916;4.698;2023-04-29T11:21:45;8.80;;;3.77;;
76606;SDS011;65498;50.916;4.698;2023-04-29T11:24:13;6.62;;;3.22;;
76606;SDS011;65498;50.916;4.698;2023-04-29T11:26:42;7.20;;;3.67;;
76606;SDS011;65498;50.916;4.698;2023-04-29T11:29:10;8.15;;;3.62;;
76606;SDS011;65498;50.916;4.698;2023-04-29T11:31:38;7.05;;;3.67;;
76606;SDS011;65498;50.916;4.698;2023-04-29T11:34:06;7.75;;;3.85;;
76606;SDS011;65498;50.916;4.698;2023-04-29T11:36:33;7.20;;;3.70;;
76606;SDS011;65498;50.916;4.698;2023-04-29T11:39:02;9.15;;;3.52;;
76606;SDS011;65498;50.916;4.698;2023-04-29T11:41:30;9.18;;;4.65;;
76606;SDS011;65498;50.916;4.698;2023-04-29T11:43:58;7.35;;;3.60;;
76606;SDS011;65498;50.916;4.698;2023-04-29T11:46:29;8.00;;;3.75;;
76606;SDS011;65498;50.916;4.698;2023-04-29T11:48:57;8.40;;;3.87;;
76606;SDS011;65498;50.916;4.698;2023-04-29T11:51:25;9.45;;;3.80;;
76606;SDS011;65498;50.916;4.698;2023-04-29T11:53:53;7.85;;;3.98;;
76606;SDS011;65498;50.916;4.698;2023-04-29T11:56:24;8.73;;;3.60;;
76606;SDS011;65498;50.916;4.698;2023-04-29T11:58:55;7.80;;;3.37;;
76606;SDS011;65498;50.916;4.698;2023-04-29T12:01:24;7.70;;;3.40;;
76606;SDS011;65498;50.916;4.698;2023-04-29T12:03:55;7.08;;;3.33;;
76606;SDS011;65498;50.916;4.698;2023-04-29T12:06:28;6.78;;;3.30;;
76606;SDS011;65498;50.916;4.698;2023-04-29T12:08:59;7.85;;;3.87;;
76606;SDS011;65498;50.916;4.698;2023-04-29T12:11:28;7.70;;;3.55;;
76606;SDS011;65498;50.916;4.698;2023-04-29T12:13:56;8.73;;;3.40;;
76606;SDS011;65498;50.916;4.698;2023-04-29T12:16:26;8.73;;;3.52;;
76606;SDS011;65498;50.916;4.698;2023-04-29T12:18:54;6.60;;;3.30;;
76606;SDS011;65498;50.916;4.698;2023-04-29T12:21:23;7.20;;;3.65;;
76606;SDS011;65498;50.916;4.698;2023-04-29T12:23:52;7.28;;;3.22;;
76606;SDS011;65498;50.916;4.698;2023-04-29T12:26:20;7.33;;;3.05;;
76606;SDS011;65498;50.916;4.698;2023-04-29T12:28:47;7.08;;;3.40;;
76606;SDS011;65498;50.916;4.698;2023-04-29T12:31:17;6.37;;;2.87;;
76606;SDS011;65498;50.916;4.698;2023-04-29T12:33:44;8.15;;;3.12;;
76606;SDS011;65498;50.916;4.698;2023-04-29T12:36:15;5.97;;;3.00;;
76606;SDS011;65498;50.916;4.698;2023-04-29T12:38:44;6.12;;;3.02;;
76606;SDS011;65498;50.916;4.698;2023-04-29T12:41:14;6.15;;;2.80;;
76606;SDS011;65498;50.916;4.698;2023-04-29T12:43:42;6.35;;;2.90;;
76606;SDS011;65498;50.916;4.698;2023-04-29T12:46:09;7.72;;;2.70;;
76606;SDS011;65498;50.916;4.698;2023-04-29T12:48:37;6.40;;;2.90;;
76606;SDS011;65498;50.916;4.698;2023-04-29T12:51:09;7.15;;;3.30;;
76606;SDS011;65498;50.916;4.698;2023-04-29T12:53:37;5.80;;;2.90;;
76606;SDS011;65498;50.916;4.698;2023-04-29T12:56:05;7.45;;;3.30;;
76606;SDS011;65498;50.916;4.698;2023-04-29T12:58:33;5.92;;;2.60;;
76606;SDS011;65498;50.916;4.698;2023-04-29T13:01:00;5.37;;;2.70;;
76606;SDS011;65498;50.916;4.698;2023-04-29T13:03:28;5.67;;;2.55;;
76606;SDS011;65498;50.916;4.698;2023-04-29T13:05:56;6.78;;;2.90;;
76606;SDS011;65498;50.916;4.698;2023-04-29T13:08:24;6.35;;;2.83;;
76606;SDS011;65498;50.916;4.698;2023-04-29T13:10:52;5.67;;;2.62;;
76606;SDS011;65498;50.916;4.698;2023-04-29T13:13:19;9.10;;;2.60;;
76606;SDS011;65498;50.916;4.698;2023-04-29T13:15:47;9.00;;;2.67;;
76606;SDS011;65498;50.916;4.698;2023-04-29T13:18:14;5.75;;;2.40;;
76606;SDS011;65498;50.916;4.698;2023-04-29T13:20:42;5.97;;;2.60;;
76606;SDS011;65498;50.916;4.698;2023-04-29T13:23:09;6.12;;;3.17;;
76606;SDS011;65498;50.916;4.698;2023-04-29T13:25:37;5.85;;;2.70;;
76606;SDS011;65498;50.916;4.698;2023-04-29T13:28:04;5.87;;;2.77;;
76606;SDS011;65498;50.916;4.698;2023-04-29T13:30:32;6.35;;;2.70;;
76606;SDS011;65498;50.916;4.698;2023-04-29T13:33:00;5.75;;;2.60;;
76606;SDS011;65498;50.916;4.698;2023-04-29T13:35:27;7.62;;;3.15;;
76606;SDS011;65498;50.916;4.698;2023-04-29T13:37:55;6.47;;;2.85;;
76606;SDS011;65498;50.916;4.698;2023-04-29T13:40:22;7.03;;;3.77;;
76606;SDS011;65498;50.916;4.698;2023-04-29T13:42:50;7.83;;;3.50;;
76606;SDS011;65498;50.916;4.698;2023-04-29T13:45:17;6.35;;;3.25;;
76606;SDS011;65498;50.916;4.698;2023-04-29T13:47:52;6.62;;;4.05;;
76606;SDS011;65498;50.916;4.698;2023-04-29T13:50:20;6.65;;;3.83;;
76606;SDS011;65498;50.916;4.698;2023-04-29T13:52:48;6.97;;;3.70;;
76606;SDS011;65498;50.916;4.698;2023-04-29T13:55:15;8.95;;;4.10;;
76606;SDS011;65498;50.916;4.698;2023-04-29T13:57:43;8.95;;;4.70;;
76606;SDS011;65498;50.916;4.698;2023-04-29T14:00:11;7.97;;;4.92;;
76606;SDS011;65498;50.916;4.698;2023-04-29T14:02:39;7.90;;;4.30;;
76606;SDS011;65498;50.916;4.698;2023-04-29T14:05:07;8.45;;;4.42;;
76606;SDS011;65498;50.916;4.698;2023-04-29T14:07:35;6.72;;;3.90;;
76606;SDS011;65498;50.916;4.698;2023-04-29T14:10:02;7.65;;;4.08;;
76606;SDS011;65498;50.916;4.698;2023-04-29T14:12:31;7.72;;;4.20;;
76606;SDS011;65498;50.916;4.698;2023-04-29T14:14:58;7.83;;;4.67;;
76606;SDS011;65498;50.916;4.698;2023-04-29T14:17:26;7.78;;;3.95;;
76606;SDS011;65498;50.916;4.698;2023-04-29T14:19:53;7.62;;;4.20;;
76606;SDS011;65498;50.916;4.698;2023-04-29T14:22:21;7.90;;;4.47;;
76606;SDS011;65498;50.916;4.698;2023-04-29T14:24:53;8.38;;;4.67;;
76606;SDS011;65498;50.916;4.698;2023-04-29T14:27:20;9.00;;;4.62;;
76606;SDS011;65498;50.916;4.698;2023-04-29T14:29:48;7.67;;;4.10;;
76606;SDS011;65498;50.916;4.698;2023-04-29T14:32:16;8.53;;;4.80;;
76606;SDS011;65498;50.916;4.698;2023-04-29T14:34:43;7.92;;;4.83;;
76606;SDS011;65498;50.916;4.698;2023-04-29T14:37:11;7.47;;;4.10;;
76606;SDS011;65498;50.916;4.698;2023-04-29T14:39:38;9.35;;;4.53;;
76606;SDS011;65498;50.916;4.698;2023-04-29T14:42:06;7.28;;;3.92;;
76606;SDS011;65498;50.916;4.698;2023-04-29T14:44:33;9.28;;;4.50;;
76606;SDS011;65498;50.916;4.698;2023-04-29T14:47:01;9.05;;;4.50;;
76606;SDS011;65498;50.916;4.698;2023-04-29T14:49:29;8.95;;;4.60;;
76606;SDS011;65498;50.916;4.698;2023-04-29T14:51:56;9.53;;;4.53;;
76606;SDS011;65498;50.916;4.698;2023-04-29T14:54:24;7.83;;;4.28;;
76606;SDS011;65498;50.916;4.698;2023-04-29T14:56:52;7.70;;;4.55;;
76606;SDS011;65498;50.916;4.698;2023-04-29T14:59:20;8.50;;;4.53;;
76606;SDS011;65498;50.916;4.698;2023-04-29T15:01:47;8.08;;;4.53;;
76606;SDS011;65498;50.916;4.698;2023-04-29T15:04:15;10.10;;;5.12;;
76606;SDS011;65498;50.916;4.698;2023-04-29T15:06:42;11.43;;;5.15;;
76606;SDS011;65498;50.916;4.698;2023-04-29T15:09:10;9.18;;;4.75;;
76606;SDS011;65498;50.916;4.698;2023-04-29T15:11:38;10.88;;;5.10;;
76606;SDS011;65498;50.916;4.698;2023-04-29T15:14:05;11.63;;;4.65;;
76606;SDS011;65498;50.916;4.698;2023-04-29T15:16:33;8.48;;;4.28;;
76606;SDS011;65498;50.916;4.698;2023-04-29T15:19:01;13.55;;;5.22;;
76606;SDS011;65498;50.916;4.698;2023-04-29T15:21:28;9.50;;;4.83;;
76606;SDS011;65498;50.916;4.698;2023-04-29T15:23:57;9.73;;;5.03;;
76606;SDS011;65498;50.916;4.698;2023-04-29T15:26:24;9.85;;;5.05;;
76606;SDS011;65498;50.916;4.698;2023-04-29T15:28:53;9.63;;;4.53;;
76606;SDS011;65498;50.916;4.698;2023-04-29T15:31:20;9.80;;;5.10;;
76606;SDS011;65498;50.916;4.698;2023-04-29T15:33:50;9.88;;;4.87;;
76606;SDS011;65498;50.916;4.698;2023-04-29T15:36:25;9.43;;;4.28;;
76606;SDS011;65498;50.916;4.698;2023-04-29T15:38:53;9.18;;;4.53;;
76606;SDS011;65498;50.916;4.698;2023-04-29T15:41:21;14.23;;;5.20;;